Adelanto, CA

6:28 AM PDT on March 31, 2015 (GMT -0700)
Adelanto Airport (52CL) | | Change Station
CLOSE
Current Station
Personal Weather Station
Location: Adelanto, CA
Elevation: 3061 ft
Nearby Weather Stations
Active Advisory: Wind Advisory

Elev 3061 ft 34.54 °N, 117.46 °W | Updated 3 seconds ago

Clear
Clear
51.9 °F
Feels Like 51.9 °F
N
0.0
Wind Variable Wind from North
Gusts 0.0 mph

Today
High -- | Low -- °F
--% Chance of Precip.
Yesterday
High -- | Low -- °F
Precip. -- in
6:38 AM 7:10 PM
Waxing Gibbous, 87% visible
Pressure 30.01 in
Visibility 10.0 miles
Clouds Clear
Dew Point 31 °F
Humidity 44%
Rainfall 0.00 in
Snow Depth Not available.
UV 0 out of 12
Pollen 8.90 out of 12
Air Quality Not available.
Flu Activity Not available.
METAR KVCV 311315Z AUTO 26005KT 10SM CLR 09/M03 A3001 RMK AO2

More Conditions Fewer Conditions

Pressure 30.01 in
Visibility 10.0 miles
Clouds Clear
Dew Point 31 °F
Humidity 44%
Rainfall 0.00 in
Snow Depth Not available.
UV 0 out of 12
Pollen 8.90 out of 12
Air Quality Not available.
Flu Activity Not available.
METAR KVCV 311315Z AUTO 26005KT 10SM CLR 09/M03 A3001 RMK AO2

More Conditions Fewer Conditions

10-Day Weather Forecast

Almanac

Astronomy

Mar. 31, 2015 Rise Set
Actual Time
Civil Twilight
Nautical Twilight
Astronomical Twilight
Moon
Length of Visible Light
Length of Day
Tomorrow will be .
, % of the Moon is Illuminated

Today's Extremes

State Highs State Lows

Community

WunderPhotos

Upload Photos

1,809,766 photos uploaded!

WunderBlogs® & News

Nearby

Air Quality

  Air Quality AQ Index Pollutant
Not available.

Snow Depth

Station Depth Elevation

Earthquake Activity

City Distance Mag. Time & Date
Minimum magnitude displayed is 2.5.

Coastal Water Temperatures

Place Temperature

Stations

Nearby Weather Stations

Station Location Temp. Windchill Dew Point Humidity Wind Precip. Elev Updated Type
                   
Wind Advisory
Statement as of 3:05 AM PDT on March 31, 2015

... Wind Advisory in effect from 4 PM this afternoon to 3 am PDT
Wednesday...

The National Weather Service in San Diego has issued a Wind
Advisory... which is in effect from 4 PM this afternoon to 3 am
PDT Wednesday.

* Winds... areas of west winds 20 to 30 mph with gusts to 45 mph.
Isolated gusts to 55 mph in the northern Coachella Valley.

* Location... strongest winds near the desert slopes of the
mountains... and in the northern and eastern portions of the
Coachella Valley.

* Visibility... locally reduced in blowing sand and blowing dust.

Precautionary/preparedness actions...

A Wind Advisory means that winds of 35 mph are expected. Winds
this strong can make driving difficult... especially for high
profile vehicles. Use extra caution.